createdAt,value
2023-05-08T00:02:09.645Z,7.10
2023-05-08T00:04:36.334Z,7.05
2023-05-08T00:07:02.801Z,5.80
2023-05-08T00:09:29.311Z,5.07
2023-05-08T00:11:55.761Z,5.23
2023-05-08T00:14:22.228Z,5.22
2023-05-08T00:16:48.848Z,5.22
2023-05-08T00:19:15.345Z,5.13
2023-05-08T00:21:42.160Z,5.45
2023-05-08T00:24:08.761Z,5.83
2023-05-08T00:26:35.253Z,6.72
2023-05-08T00:29:01.730Z,6.22
2023-05-08T00:31:28.231Z,6.60
2023-05-08T00:33:54.718Z,6.95
2023-05-08T00:36:21.188Z,6.10
2023-05-08T00:38:47.893Z,5.53
2023-05-08T00:41:14.431Z,4.40
2023-05-08T00:43:40.947Z,4.50
2023-05-08T00:46:09.815Z,5.43
2023-05-08T00:48:36.750Z,5.47
2023-05-08T00:51:06.497Z,5.38
2023-05-08T00:53:35.957Z,6.00
2023-05-08T00:56:02.595Z,6.13
2023-05-08T00:58:30.225Z,5.88
2023-05-08T01:00:57.517Z,6.13
2023-05-08T01:03:25.456Z,6.45
2023-05-08T01:05:52.072Z,6.25
2023-05-08T01:08:18.527Z,7.45
2023-05-08T01:10:57.083Z,7.18
2023-05-08T01:13:46.753Z,7.53
2023-05-08T01:16:17.182Z,7.35
2023-05-08T01:18:56.880Z,7.82
2023-05-08T01:21:46.174Z,8.07
2023-05-08T01:24:25.777Z,7.65
2023-05-08T01:27:11.072Z,7.30
2023-05-08T01:30:05.835Z,7.57
2023-05-08T01:32:41.312Z,8.45
2023-05-08T01:35:10.717Z,7.88
2023-05-08T01:37:50.052Z,6.47
2023-05-08T01:40:34.265Z,7.80
2023-05-08T01:43:14.433Z,7.68
2023-05-08T01:45:46.860Z,7.65
2023-05-08T01:48:38.647Z,7.93
2023-05-08T01:51:14.281Z,7.97
2023-05-08T01:53:49.731Z,7.67
2023-05-08T01:56:22.212Z,7.13
2023-05-08T01:58:54.246Z,6.78
2023-05-08T02:01:24.341Z,7.28
2023-05-08T02:03:53.004Z,7.43
2023-05-08T02:06:22.000Z,7.53
2023-05-08T02:08:50.250Z,7.90
2023-05-08T02:11:18.193Z,7.63
2023-05-08T02:13:47.879Z,7.13
2023-05-08T02:16:15.234Z,6.25
2023-05-08T02:18:51.055Z,6.57
2023-05-08T02:21:18.714Z,7.00
2023-05-08T02:23:47.002Z,6.93
2023-05-08T02:26:16.095Z,7.38
2023-05-08T02:28:43.319Z,7.85
2023-05-08T02:31:12.077Z,7.40
2023-05-08T02:33:41.978Z,7.10
2023-05-08T02:36:10.840Z,8.25
2023-05-08T02:38:39.880Z,7.97
2023-05-08T02:41:07.883Z,8.10
2023-05-08T02:43:34.996Z,7.20
2023-05-08T02:46:14.037Z,7.90
2023-05-08T02:48:57.117Z,6.63
2023-05-08T02:51:43.777Z,7.35
2023-05-08T02:54:14.488Z,6.57
2023-05-08T02:56:53.120Z,6.83
2023-05-08T02:59:25.886Z,6.93
2023-05-08T03:01:59.814Z,7.00
2023-05-08T03:04:32.232Z,7.15
2023-05-08T03:06:59.735Z,7.35
2023-05-08T03:09:32.264Z,6.97
2023-05-08T03:12:06.525Z,6.88
2023-05-08T03:14:39.330Z,6.97
2023-05-08T03:17:09.116Z,6.80
2023-05-08T03:19:39.243Z,7.22
2023-05-08T03:22:07.522Z,7.53
2023-05-08T03:24:38.609Z,6.53
2023-05-08T03:27:07.414Z,6.80
2023-05-08T03:29:34.403Z,7.45
2023-05-08T03:32:02.378Z,7.70
2023-05-08T03:34:30.801Z,6.97
2023-05-08T03:36:57.426Z,7.60
2023-05-08T03:39:25.366Z,7.72
2023-05-08T03:41:52.324Z,7.38
2023-05-08T03:44:19.889Z,8.05
2023-05-08T03:46:48.087Z,7.57
2023-05-08T03:49:14.945Z,7.30
2023-05-08T03:51:42.596Z,7.43
2023-05-08T03:54:09.081Z,6.28
2023-05-08T03:56:35.637Z,6.35
2023-05-08T03:59:21.076Z,7.53
2023-05-08T04:01:59.902Z,7.18
2023-05-08T04:04:40.896Z,6.88
2023-05-08T04:07:12.612Z,7.07
2023-05-08T04:09:51.598Z,6.82
2023-05-08T04:12:21.772Z,7.07
2023-05-08T04:14:54.788Z,6.20
2023-05-08T04:17:47.499Z,6.88
2023-05-08T04:20:18.321Z,6.78
2023-05-08T04:22:46.642Z,6.95
2023-05-08T04:25:15.339Z,7.27
2023-05-08T04:27:43.784Z,7.18
2023-05-08T04:30:10.974Z,6.90
2023-05-08T04:32:40.550Z,6.78
2023-05-08T04:35:08.781Z,7.10
2023-05-08T04:37:35.543Z,7.00
2023-05-08T04:40:02.681Z,6.47
2023-05-08T04:42:29.574Z,7.28
2023-05-08T04:44:56.463Z,6.82
2023-05-08T04:47:24.256Z,7.07
2023-05-08T04:49:51.255Z,7.00
2023-05-08T04:52:17.826Z,7.05
2023-05-08T04:54:44.346Z,7.40
2023-05-08T04:57:10.948Z,7.20
2023-05-08T04:59:37.578Z,7.43
2023-05-08T05:02:06.740Z,6.77
2023-05-08T05:04:33.733Z,7.18
2023-05-08T05:07:00.276Z,6.80
2023-05-08T05:09:26.804Z,6.55
2023-05-08T05:11:53.259Z,6.95
2023-05-08T05:14:19.952Z,6.50
2023-05-08T05:16:47.120Z,6.68
2023-05-08T05:19:13.895Z,6.38
2023-05-08T05:21:40.559Z,6.65
2023-05-08T05:24:07.321Z,6.80
2023-05-08T05:26:35.752Z,6.47
2023-05-08T05:29:03.529Z,7.28
2023-05-08T05:31:30.321Z,7.20
2023-05-08T05:33:56.870Z,6.70
2023-05-08T05:36:23.449Z,6.75
2023-05-08T05:38:50.526Z,6.87
2023-05-08T05:41:17.027Z,7.15
2023-05-08T05:43:43.606Z,7.30
2023-05-08T05:46:11.560Z,6.97
2023-05-08T05:48:37.985Z,7.20
2023-05-08T05:51:04.673Z,8.00
2023-05-08T05:53:31.199Z,7.28
2023-05-08T05:55:57.667Z,8.35
2023-05-08T05:58:24.165Z,8.20
2023-05-08T06:00:51.405Z,7.75
2023-05-08T06:03:18.221Z,8.10
2023-05-08T06:05:46.988Z,8.02
2023-05-08T06:08:13.592Z,8.52
2023-05-08T06:10:40.120Z,8.77
2023-05-08T06:13:06.685Z,8.80
2023-05-08T06:15:34.010Z,8.63
2023-05-08T06:18:00.802Z,8.95
2023-05-08T06:20:27.400Z,10.18
2023-05-08T06:22:54.076Z,10.23
2023-05-08T06:25:20.590Z,10.10
2023-05-08T06:27:47.062Z,11.27
2023-05-08T06:30:13.758Z,11.70
2023-05-08T06:32:40.427Z,11.60
2023-05-08T06:35:07.703Z,11.65
2023-05-08T06:37:34.175Z,10.63
2023-05-08T06:40:11.744Z,11.27
2023-05-08T06:42:39.620Z,12.20
2023-05-08T06:45:07.461Z,11.32
2023-05-08T06:47:34.008Z,12.07
2023-05-08T06:50:01.106Z,12.70
2023-05-08T06:52:27.611Z,12.87
2023-05-08T06:54:54.065Z,13.82
2023-05-08T06:57:20.688Z,13.35
2023-05-08T06:59:47.211Z,13.48
2023-05-08T07:02:13.724Z,13.40
2023-05-08T07:04:40.331Z,14.47
2023-05-08T07:07:07.739Z,13.25
2023-05-08T07:09:34.348Z,13.52
2023-05-08T07:12:00.942Z,14.82
2023-05-08T07:14:27.610Z,14.63
2023-05-08T07:16:54.343Z,14.97
2023-05-08T07:19:22.509Z,14.80
2023-05-08T07:21:49.310Z,15.48
2023-05-08T07:24:15.819Z,15.15
2023-05-08T07:26:42.666Z,15.32
2023-05-08T07:29:10.304Z,15.80
2023-05-08T07:31:39.424Z,15.57
2023-05-08T07:34:07.276Z,17.50
2023-05-08T07:36:34.013Z,17.02
2023-05-08T07:39:00.496Z,17.52
2023-05-08T07:41:27.118Z,17.23
2023-05-08T07:43:53.899Z,17.58
2023-05-08T07:46:20.765Z,19.05
2023-05-08T07:48:47.447Z,17.95
2023-05-08T07:51:14.697Z,17.67
2023-05-08T07:53:41.285Z,17.80
2023-05-08T07:56:07.985Z,18.77
2023-05-08T07:58:35.131Z,18.33
2023-05-08T08:01:02.230Z,17.70
2023-05-08T08:03:29.093Z,18.15
2023-05-08T08:05:55.716Z,18.90
2023-05-08T08:08:22.407Z,18.73
2023-05-08T08:10:50.022Z,18.52
2023-05-08T08:13:17.583Z,18.48
2023-05-08T08:15:44.267Z,17.90
2023-05-08T08:18:10.882Z,17.33
2023-05-08T08:20:37.700Z,17.80
2023-05-08T08:23:04.332Z,17.35
2023-05-08T08:25:30.974Z,17.40
2023-05-08T08:27:58.455Z,17.83
2023-05-08T08:30:25.080Z,17.07
2023-05-08T08:32:51.657Z,17.17
2023-05-08T08:35:18.558Z,16.63
2023-05-08T08:37:45.417Z,17.00
2023-05-08T08:40:12.252Z,16.75
2023-05-08T08:42:38.943Z,15.90
2023-05-08T08:45:06.849Z,17.08
2023-05-08T08:47:37.780Z,16.58
2023-05-08T08:50:05.417Z,15.90
2023-05-08T08:52:37.759Z,16.35
2023-05-08T08:55:08.142Z,17.00
2023-05-08T08:57:39.606Z,16.60
2023-05-08T09:00:09.618Z,16.45
2023-05-08T09:02:36.616Z,16.70
2023-05-08T09:05:03.665Z,15.75
2023-05-08T09:07:30.497Z,16.67
2023-05-08T09:09:57.443Z,16.45
2023-05-08T09:12:24.019Z,15.88
2023-05-08T09:14:51.102Z,16.27
2023-05-08T09:17:17.801Z,15.10
2023-05-08T09:19:45.126Z,16.10
2023-05-08T09:22:11.993Z,15.13
2023-05-08T09:24:57.201Z,15.35
2023-05-08T09:27:25.377Z,14.57
2023-05-08T09:30:11.805Z,15.20
2023-05-08T09:32:40.829Z,15.40
2023-05-08T09:35:08.912Z,15.23
2023-05-08T09:37:39.342Z,15.40
2023-05-08T09:40:21.159Z,14.95
2023-05-08T09:42:49.096Z,15.88
2023-05-08T09:45:29.049Z,15.23
2023-05-08T09:47:55.796Z,15.70
2023-05-08T09:50:22.600Z,16.70
2023-05-08T09:52:50.781Z,16.35
2023-05-08T09:55:17.783Z,16.35
2023-05-08T09:58:04.910Z,15.30
2023-05-08T10:00:39.652Z,17.23
2023-05-08T10:03:06.256Z,16.45
2023-05-08T10:05:35.884Z,15.65
2023-05-08T10:08:26.544Z,18.40
2023-05-08T10:10:53.336Z,18.37
2023-05-08T10:13:19.910Z,18.17
2023-05-08T10:15:54.463Z,19.45
2023-05-08T10:18:22.334Z,19.42
2023-05-08T10:20:49.581Z,21.02
2023-05-08T10:23:17.649Z,22.87
2023-05-08T10:25:54.741Z,23.83
2023-05-08T10:28:37.066Z,25.48
2023-05-08T10:31:05.613Z,26.58
2023-05-08T10:33:34.743Z,26.95
2023-05-08T10:36:02.016Z,25.97
2023-05-08T10:38:31.184Z,25.20
2023-05-08T10:41:01.214Z,25.90
2023-05-08T10:43:29.866Z,25.42
2023-05-08T10:45:58.463Z,27.63
2023-05-08T10:48:30.762Z,27.93
2023-05-08T10:51:10.590Z,28.33
2023-05-08T10:53:43.921Z,28.10
2023-05-08T10:56:10.737Z,27.75
2023-05-08T10:58:39.348Z,27.33
2023-05-08T11:01:09.013Z,26.03
2023-05-08T11:03:46.574Z,25.60
2023-05-08T11:06:14.106Z,28.83
2023-05-08T11:08:46.947Z,25.85
2023-05-08T11:11:29.619Z,27.88
2023-05-08T11:14:09.721Z,27.70
2023-05-08T11:16:54.176Z,28.80
2023-05-08T11:19:22.093Z,29.40
2023-05-08T11:22:19.819Z,28.23
2023-05-08T11:24:55.784Z,29.75
2023-05-08T11:27:48.970Z,29.43
2023-05-08T11:30:35.082Z,30.05
2023-05-08T11:33:05.000Z,32.25
2023-05-08T11:35:57.528Z,32.63
2023-05-08T11:38:31.653Z,31.75
2023-05-08T11:41:00.923Z,31.80
2023-05-08T11:43:33.553Z,30.38
2023-05-08T11:46:04.605Z,30.63
2023-05-08T11:48:32.604Z,29.60
2023-05-08T11:51:00.001Z,29.40
2023-05-08T11:53:27.025Z,30.23
2023-05-08T11:55:54.784Z,28.50
2023-05-08T11:58:21.856Z,28.73
2023-05-08T12:00:49.604Z,30.85
2023-05-08T12:03:19.145Z,30.50
2023-05-08T12:05:46.633Z,31.27
2023-05-08T12:08:14.370Z,30.65
2023-05-08T12:10:47.220Z,30.10
2023-05-08T12:13:21.164Z,30.35
2023-05-08T12:15:50.049Z,30.38
2023-05-08T12:18:17.300Z,29.13
2023-05-08T12:20:44.331Z,28.55
2023-05-08T12:23:11.527Z,27.80
2023-05-08T12:25:39.146Z,26.38
2023-05-08T12:28:12.145Z,25.88
2023-05-08T12:30:38.853Z,25.40
2023-05-08T12:33:05.949Z,24.90
2023-05-08T12:35:32.993Z,26.17
2023-05-08T12:38:03.599Z,26.80
2023-05-08T12:40:42.669Z,26.33
2023-05-08T12:43:09.876Z,25.37
2023-05-08T12:45:41.259Z,23.35
2023-05-08T12:48:17.945Z,22.45
2023-05-08T12:50:45.978Z,21.65
2023-05-08T12:53:14.740Z,24.67
2023-05-08T12:55:53.536Z,23.00
2023-05-08T12:58:24.138Z,20.33
2023-05-08T13:00:52.087Z,20.70
2023-05-08T13:03:26.693Z,20.95
2023-05-08T13:05:55.295Z,20.65
2023-05-08T13:08:30.296Z,19.50
2023-05-08T13:10:56.810Z,19.73
2023-05-08T13:13:26.001Z,20.98
2023-05-08T13:15:54.119Z,20.45
2023-05-08T13:18:23.814Z,22.15
2023-05-08T13:20:50.267Z,21.37
2023-05-08T13:23:16.789Z,20.98
2023-05-08T13:25:43.349Z,19.50
2023-05-08T13:28:10.229Z,19.83
2023-05-08T13:30:37.459Z,19.35
2023-05-08T13:33:04.951Z,19.07
2023-05-08T13:35:32.897Z,19.25
2023-05-08T13:37:59.712Z,18.80
2023-05-08T13:40:26.422Z,20.35
2023-05-08T13:42:54.134Z,19.30
2023-05-08T13:45:20.671Z,19.33
2023-05-08T13:47:48.938Z,19.13
2023-05-08T13:50:18.351Z,20.98
2023-05-08T13:52:45.029Z,21.23
2023-05-08T13:55:12.859Z,19.58
2023-05-08T13:57:40.097Z,19.10
2023-05-08T14:00:07.825Z,19.35
2023-05-08T14:02:34.642Z,19.40
2023-05-08T14:05:01.268Z,19.52
2023-05-08T14:07:28.207Z,20.42
2023-05-08T14:09:54.729Z,19.07
2023-05-08T14:12:21.276Z,19.42
2023-05-08T14:14:47.791Z,18.60
2023-05-08T14:17:14.287Z,18.73
2023-05-08T14:19:40.858Z,19.40
2023-05-08T14:22:07.408Z,18.57
2023-05-08T14:24:33.944Z,19.98
2023-05-08T14:27:02.041Z,17.90
2023-05-08T14:29:28.870Z,18.08
2023-05-08T14:31:55.530Z,18.77
2023-05-08T14:34:22.177Z,18.20
2023-05-08T14:36:48.667Z,17.75
2023-05-08T14:39:15.115Z,18.83
2023-05-08T14:41:48.123Z,18.50
2023-05-08T14:44:26.136Z,17.98
2023-05-08T14:46:52.681Z,16.77
2023-05-08T14:49:25.367Z,17.80
2023-05-08T14:51:59.840Z,18.40
2023-05-08T14:54:26.460Z,17.20
2023-05-08T14:56:53.062Z,17.08
2023-05-08T14:59:19.525Z,16.20
2023-05-08T15:01:46.086Z,17.35
2023-05-08T15:04:12.734Z,16.80
2023-05-08T15:06:40.384Z,17.08
2023-05-08T15:09:08.804Z,18.27
2023-05-08T15:11:36.621Z,16.50
2023-05-08T15:14:04.188Z,17.70
2023-05-08T15:16:30.915Z,17.63
2023-05-08T15:18:57.466Z,18.00
2023-05-08T15:21:26.641Z,18.15
2023-05-08T15:23:54.900Z,18.40
2023-05-08T15:26:22.122Z,18.05
2023-05-08T15:28:48.705Z,19.40
2023-05-08T15:31:15.555Z,17.67
2023-05-08T15:33:44.817Z,18.30
2023-05-08T15:36:13.437Z,17.73
2023-05-08T15:38:43.173Z,18.33
2023-05-08T15:41:14.640Z,17.70
2023-05-08T15:43:42.273Z,17.83
2023-05-08T15:46:08.859Z,18.67
2023-05-08T15:48:35.595Z,17.30
2023-05-08T15:51:02.090Z,17.50
2023-05-08T15:53:28.702Z,16.38
2023-05-08T15:55:56.850Z,16.70
2023-05-08T15:58:23.461Z,16.73
2023-05-08T16:00:50.139Z,17.63
2023-05-08T16:03:17.077Z,17.50
2023-05-08T16:05:43.895Z,18.45
2023-05-08T16:08:12.849Z,18.02
2023-05-08T16:10:40.713Z,19.10
2023-05-08T16:13:07.793Z,18.77
2023-05-08T16:15:34.370Z,17.90
2023-05-08T16:18:01.027Z,18.45
2023-05-08T16:20:27.571Z,19.20
2023-05-08T16:22:55.862Z,18.65
2023-05-08T16:25:22.655Z,18.57
2023-05-08T16:27:49.481Z,18.95
2023-05-08T16:30:16.539Z,20.35
2023-05-08T16:32:44.605Z,20.63
2023-05-08T16:35:11.805Z,21.23
2023-05-08T16:37:38.536Z,20.60
2023-05-08T16:40:06.961Z,21.20
2023-05-08T16:42:33.454Z,22.05
2023-05-08T16:44:59.968Z,24.60
2023-05-08T16:47:26.527Z,24.13
2023-05-08T16:49:53.847Z,23.87
2023-05-08T16:52:20.404Z,24.27
2023-05-08T16:54:46.942Z,26.80
2023-05-08T16:57:13.466Z,26.35
2023-05-08T16:59:41.349Z,25.77
2023-05-08T17:02:08.273Z,27.10
2023-05-08T17:04:34.892Z,27.42
2023-05-08T17:07:01.319Z,28.25
2023-05-08T17:09:27.943Z,27.67
2023-05-08T17:11:54.397Z,30.05
2023-05-08T17:14:20.973Z,28.53
2023-05-08T17:16:47.668Z,30.63
2023-05-08T17:19:14.168Z,29.33
2023-05-08T17:21:40.727Z,30.63
2023-05-08T17:24:07.494Z,31.10
2023-05-08T17:26:34.138Z,33.73
2023-05-08T17:29:00.729Z,31.67
2023-05-08T17:31:27.313Z,31.85
2023-05-08T17:33:53.908Z,30.85
2023-05-08T17:36:20.619Z,30.23
2023-05-08T17:38:47.396Z,31.10
2023-05-08T17:41:14.127Z,30.63
2023-05-08T17:43:40.688Z,30.38
2023-05-08T17:46:07.599Z,30.08
2023-05-08T17:48:34.821Z,29.02
2023-05-08T17:51:02.756Z,28.80
2023-05-08T17:53:32.820Z,27.95
2023-05-08T17:55:59.298Z,29.10
2023-05-08T17:58:25.954Z,27.23
2023-05-08T18:00:53.952Z,26.63
2023-05-08T18:03:20.747Z,26.07
2023-05-08T18:05:47.474Z,28.27
2023-05-08T18:08:13.956Z,27.63
2023-05-08T18:10:41.014Z,25.95
2023-05-08T18:13:07.849Z,25.38
2023-05-08T18:15:39.055Z,26.77
2023-05-08T18:18:05.702Z,26.38
2023-05-08T18:20:33.400Z,25.20
2023-05-08T18:22:59.878Z,25.08
2023-05-08T18:25:26.398Z,23.50
2023-05-08T18:27:53.061Z,25.00
2023-05-08T18:30:19.521Z,24.27
2023-05-08T18:32:46.575Z,24.60
2023-05-08T18:35:13.173Z,24.13
2023-05-08T18:37:39.694Z,23.88
2023-05-08T18:40:06.786Z,23.03
2023-05-08T18:42:33.356Z,22.52
2023-05-08T18:45:00.800Z,22.27
2023-05-08T18:47:27.293Z,22.52
2023-05-08T18:49:53.906Z,20.55
2023-05-08T18:52:20.391Z,20.97
2023-05-08T18:54:46.824Z,20.00
2023-05-08T18:57:13.400Z,20.20
2023-05-08T18:59:39.864Z,20.02
2023-05-08T19:02:06.435Z,18.88
2023-05-08T19:04:32.988Z,18.13
2023-05-08T19:07:00.714Z,17.48
2023-05-08T19:09:27.240Z,17.73
2023-05-08T19:11:53.888Z,16.88
2023-05-08T19:14:20.370Z,18.08
2023-05-08T19:16:46.918Z,16.50
2023-05-08T19:19:13.457Z,16.60
2023-05-08T19:21:39.919Z,17.80
2023-05-08T19:24:06.856Z,16.02
2023-05-08T19:26:33.334Z,16.85
2023-05-08T19:28:59.853Z,16.90
2023-05-08T19:31:26.431Z,17.27
2023-05-08T19:33:52.945Z,17.33
2023-05-08T19:36:19.455Z,17.58
2023-05-08T19:38:45.954Z,18.00
2023-05-08T19:41:12.434Z,17.60
2023-05-08T19:43:38.916Z,18.73
2023-05-08T19:46:05.570Z,19.92
2023-05-08T19:48:32.123Z,18.05
2023-05-08T19:51:05.857Z,17.63
2023-05-08T19:53:32.326Z,18.03
2023-05-08T19:55:58.779Z,17.15
2023-05-08T19:58:25.438Z,17.70
2023-05-08T20:00:52.162Z,19.50
2023-05-08T20:03:19.382Z,17.73
2023-05-08T20:05:46.049Z,16.87
2023-05-08T20:08:12.587Z,17.30
2023-05-08T20:10:39.117Z,16.80
2023-05-08T20:13:05.663Z,17.13
2023-05-08T20:15:32.250Z,17.20
2023-05-08T20:17:59.824Z,15.90
2023-05-08T20:20:27.272Z,16.13
2023-05-08T20:22:53.698Z,15.50
2023-05-08T20:25:20.216Z,16.15
2023-05-08T20:27:46.753Z,16.35
2023-05-08T20:30:13.624Z,15.40
2023-05-08T20:32:40.413Z,15.43
2023-05-08T20:35:07.581Z,16.08
2023-05-08T20:37:34.065Z,15.98
2023-05-08T20:40:01.848Z,16.15
2023-05-08T20:42:28.307Z,15.50
2023-05-08T20:44:54.892Z,15.43
2023-05-08T20:47:22.609Z,15.40
2023-05-08T20:49:49.530Z,14.68
2023-05-08T20:52:16.019Z,15.15
2023-05-08T20:54:44.439Z,15.03
2023-05-08T20:57:12.954Z,14.15
2023-05-08T20:59:39.435Z,15.50
2023-05-08T21:02:06.016Z,15.32
2023-05-08T21:04:32.502Z,14.73
2023-05-08T21:06:59.140Z,15.30
2023-05-08T21:09:25.682Z,14.88
2023-05-08T21:11:52.164Z,15.20
2023-05-08T21:14:18.628Z,15.10
2023-05-08T21:16:45.174Z,15.98
2023-05-08T21:19:13.922Z,15.63
2023-05-08T21:21:40.598Z,15.18
2023-05-08T21:24:07.216Z,14.43
2023-05-08T21:26:33.658Z,15.40
2023-05-08T21:29:00.582Z,14.07
2023-05-08T21:31:28.763Z,14.93
2023-05-08T21:33:55.457Z,15.90
2023-05-08T21:36:21.975Z,15.45
2023-05-08T21:38:51.126Z,15.05
2023-05-08T21:41:17.578Z,14.50
2023-05-08T21:43:44.064Z,14.10
2023-05-08T21:46:10.719Z,14.70
2023-05-08T21:48:37.350Z,15.35
2023-05-08T21:51:05.970Z,14.07
2023-05-08T21:53:32.727Z,14.75
2023-05-08T21:55:59.791Z,14.57
2023-05-08T21:58:26.416Z,15.60
2023-05-08T22:00:52.919Z,14.52
2023-05-08T22:03:19.469Z,15.57
2023-05-08T22:05:45.957Z,14.80
2023-05-08T22:08:12.531Z,16.17
2023-05-08T22:10:39.053Z,14.75
2023-05-08T22:13:06.508Z,15.32
2023-05-08T22:15:33.558Z,14.48
2023-05-08T22:18:02.412Z,15.02
2023-05-08T22:20:29.250Z,14.43
2023-05-08T22:22:56.272Z,15.55
2023-05-08T22:25:22.807Z,16.55
2023-05-08T22:27:49.293Z,16.45
2023-05-08T22:30:15.885Z,15.63
2023-05-08T22:32:42.827Z,14.87
2023-05-08T22:35:09.497Z,15.65
2023-05-08T22:37:36.798Z,13.57
2023-05-08T22:40:03.475Z,15.32
2023-05-08T22:42:30.011Z,15.70
2023-05-08T22:44:56.897Z,15.83
2023-05-08T22:47:23.481Z,14.48
2023-05-08T22:49:50.365Z,14.93
2023-05-08T22:52:17.048Z,15.85
2023-05-08T22:54:43.517Z,16.20
2023-05-08T22:57:09.972Z,14.77
2023-05-08T22:59:36.645Z,15.88
2023-05-08T23:02:03.232Z,15.63
2023-05-08T23:04:29.729Z,14.02
2023-05-08T23:06:56.605Z,14.60
2023-05-08T23:09:23.086Z,15.37
2023-05-08T23:11:50.030Z,14.25
2023-05-08T23:14:16.567Z,15.40
2023-05-08T23:16:43.112Z,15.35
2023-05-08T23:19:10.091Z,15.05
2023-05-08T23:21:36.761Z,14.13
2023-05-08T23:24:04.602Z,14.45
2023-05-08T23:26:31.066Z,13.82
2023-05-08T23:28:57.503Z,14.60
2023-05-08T23:31:24.069Z,13.98
2023-05-08T23:33:50.634Z,14.33
2023-05-08T23:36:17.154Z,15.20
2023-05-08T23:38:43.812Z,14.77
2023-05-08T23:41:10.988Z,15.30
2023-05-08T23:43:37.564Z,16.70
2023-05-08T23:46:04.086Z,14.27
2023-05-08T23:48:30.578Z,14.45
2023-05-08T23:50:57.202Z,14.68
2023-05-08T23:53:23.887Z,14.10
2023-05-08T23:55:53.181Z,14.70
2023-05-08T23:58:19.755Z,13.87
